sensor_id;sensor_type;location;lat;lon;timestamp;P1;durP1;ratioP1;P2;durP2;ratioP2
18425;SDS011;9340;48.756;9.226;2022-08-19T00:00:34;16.05;;;14.55;;
18425;SDS011;9340;48.756;9.226;2022-08-19T00:03:01;15.07;;;13.82;;
18425;SDS011;9340;48.756;9.226;2022-08-19T00:05:28;15.60;;;14.23;;
18425;SDS011;9340;48.756;9.226;2022-08-19T00:07:55;15.80;;;14.45;;
18425;SDS011;9340;48.756;9.226;2022-08-19T00:10:23;14.02;;;12.82;;
18425;SDS011;9340;48.756;9.226;2022-08-19T00:12:50;14.55;;;13.13;;
18425;SDS011;9340;48.756;9.226;2022-08-19T00:15:18;14.73;;;13.38;;
18425;SDS011;9340;48.756;9.226;2022-08-19T00:17:47;14.73;;;13.52;;
18425;SDS011;9340;48.756;9.226;2022-08-19T00:20:15;14.45;;;13.25;;
18425;SDS011;9340;48.756;9.226;2022-08-19T00:22:43;15.82;;;14.38;;
18425;SDS011;9340;48.756;9.226;2022-08-19T00:25:10;15.95;;;14.57;;
18425;SDS011;9340;48.756;9.226;2022-08-19T00:27:39;15.35;;;14.05;;
18425;SDS011;9340;48.756;9.226;2022-08-19T00:30:06;14.57;;;13.20;;
18425;SDS011;9340;48.756;9.226;2022-08-19T00:32:35;15.73;;;14.35;;
18425;SDS011;9340;48.756;9.226;2022-08-19T00:35:02;14.05;;;12.77;;
18425;SDS011;9340;48.756;9.226;2022-08-19T00:37:29;15.77;;;14.25;;
18425;SDS011;9340;48.756;9.226;2022-08-19T00:39:56;16.92;;;15.30;;
18425;SDS011;9340;48.756;9.226;2022-08-19T00:42:22;15.85;;;14.45;;
18425;SDS011;9340;48.756;9.226;2022-08-19T00:44:54;15.90;;;14.40;;
18425;SDS011;9340;48.756;9.226;2022-08-19T00:47:21;15.55;;;14.15;;
18425;SDS011;9340;48.756;9.226;2022-08-19T00:49:48;14.95;;;13.65;;
18425;SDS011;9340;48.756;9.226;2022-08-19T00:52:18;14.93;;;13.73;;
18425;SDS011;9340;48.756;9.226;2022-08-19T00:54:48;15.68;;;14.18;;
18425;SDS011;9340;48.756;9.226;2022-08-19T00:57:18;15.65;;;14.35;;
18425;SDS011;9340;48.756;9.226;2022-08-19T00:59:52;15.57;;;14.18;;
18425;SDS011;9340;48.756;9.226;2022-08-19T01:02:22;15.20;;;13.82;;
18425;SDS011;9340;48.756;9.226;2022-08-19T01:04:49;15.90;;;14.50;;
18425;SDS011;9340;48.756;9.226;2022-08-19T01:07:15;15.35;;;14.05;;
18425;SDS011;9340;48.756;9.226;2022-08-19T01:09:43;16.65;;;15.10;;
18425;SDS011;9340;48.756;9.226;2022-08-19T01:12:10;15.85;;;14.43;;
18425;SDS011;9340;48.756;9.226;2022-08-19T01:14:37;15.13;;;13.63;;
18425;SDS011;9340;48.756;9.226;2022-08-19T01:17:06;15.60;;;14.25;;
18425;SDS011;9340;48.756;9.226;2022-08-19T01:19:37;15.77;;;14.25;;
18425;SDS011;9340;48.756;9.226;2022-08-19T01:22:08;15.38;;;14.07;;
18425;SDS011;9340;48.756;9.226;2022-08-19T01:24:42;15.40;;;14.10;;
18425;SDS011;9340;48.756;9.226;2022-08-19T01:27:09;15.50;;;14.15;;
18425;SDS011;9340;48.756;9.226;2022-08-19T01:29:37;15.57;;;14.13;;
18425;SDS011;9340;48.756;9.226;2022-08-19T01:32:05;15.75;;;14.38;;
18425;SDS011;9340;48.756;9.226;2022-08-19T01:34:32;14.50;;;13.27;;
18425;SDS011;9340;48.756;9.226;2022-08-19T01:36:59;15.48;;;14.05;;
18425;SDS011;9340;48.756;9.226;2022-08-19T01:39:27;15.55;;;14.15;;
18425;SDS011;9340;48.756;9.226;2022-08-19T01:41:55;15.95;;;14.48;;
18425;SDS011;9340;48.756;9.226;2022-08-19T01:44:22;16.30;;;14.82;;
18425;SDS011;9340;48.756;9.226;2022-08-19T01:46:50;15.50;;;14.18;;
18425;SDS011;9340;48.756;9.226;2022-08-19T01:49:19;17.92;;;16.27;;
18425;SDS011;9340;48.756;9.226;2022-08-19T01:51:47;15.95;;;14.38;;
18425;SDS011;9340;48.756;9.226;2022-08-19T01:54:15;16.42;;;14.93;;
18425;SDS011;9340;48.756;9.226;2022-08-19T01:56:44;17.30;;;15.52;;
18425;SDS011;9340;48.756;9.226;2022-08-19T01:59:13;16.25;;;14.85;;
18425;SDS011;9340;48.756;9.226;2022-08-19T02:01:42;15.50;;;14.23;;
18425;SDS011;9340;48.756;9.226;2022-08-19T02:04:09;15.82;;;14.43;;
18425;SDS011;9340;48.756;9.226;2022-08-19T02:06:36;15.80;;;14.30;;
18425;SDS011;9340;48.756;9.226;2022-08-19T02:09:04;16.38;;;14.80;;
18425;SDS011;9340;48.756;9.226;2022-08-19T02:11:32;16.02;;;14.52;;
18425;SDS011;9340;48.756;9.226;2022-08-19T02:14:01;16.13;;;14.65;;
18425;SDS011;9340;48.756;9.226;2022-08-19T02:16:30;16.33;;;14.88;;
18425;SDS011;9340;48.756;9.226;2022-08-19T02:18:57;16.60;;;15.10;;
18425;SDS011;9340;48.756;9.226;2022-08-19T02:21:25;15.85;;;14.45;;
18425;SDS011;9340;48.756;9.226;2022-08-19T02:23:53;16.52;;;15.05;;
18425;SDS011;9340;48.756;9.226;2022-08-19T02:26:20;16.23;;;14.77;;
18425;SDS011;9340;48.756;9.226;2022-08-19T02:28:48;17.58;;;16.05;;
18425;SDS011;9340;48.756;9.226;2022-08-19T02:31:17;18.58;;;16.77;;
18425;SDS011;9340;48.756;9.226;2022-08-19T02:33:48;18.00;;;16.17;;
18425;SDS011;9340;48.756;9.226;2022-08-19T02:36:15;18.75;;;16.88;;
18425;SDS011;9340;48.756;9.226;2022-08-19T02:38:42;18.35;;;16.65;;
18425;SDS011;9340;48.756;9.226;2022-08-19T02:41:11;17.17;;;15.48;;
18425;SDS011;9340;48.756;9.226;2022-08-19T02:43:40;19.42;;;17.52;;
18425;SDS011;9340;48.756;9.226;2022-08-19T02:46:13;17.20;;;15.63;;
18425;SDS011;9340;48.756;9.226;2022-08-19T02:48:45;19.23;;;17.33;;
18425;SDS011;9340;48.756;9.226;2022-08-19T02:51:18;18.58;;;16.88;;
18425;SDS011;9340;48.756;9.226;2022-08-19T02:53:46;17.83;;;16.20;;
18425;SDS011;9340;48.756;9.226;2022-08-19T02:56:13;20.58;;;18.40;;
18425;SDS011;9340;48.756;9.226;2022-08-19T02:58:40;19.73;;;17.80;;
18425;SDS011;9340;48.756;9.226;2022-08-19T03:01:07;19.35;;;17.48;;
18425;SDS011;9340;48.756;9.226;2022-08-19T03:03:35;20.90;;;18.92;;
18425;SDS011;9340;48.756;9.226;2022-08-19T03:06:05;21.13;;;19.13;;
18425;SDS011;9340;48.756;9.226;2022-08-19T03:08:33;19.92;;;17.92;;
18425;SDS011;9340;48.756;9.226;2022-08-19T03:11:00;22.10;;;19.90;;
18425;SDS011;9340;48.756;9.226;2022-08-19T03:13:27;22.00;;;19.95;;
18425;SDS011;9340;48.756;9.226;2022-08-19T03:15:54;22.25;;;18.95;;
18425;SDS011;9340;48.756;9.226;2022-08-19T03:18:20;21.38;;;19.33;;
18425;SDS011;9340;48.756;9.226;2022-08-19T03:20:48;20.70;;;18.80;;
18425;SDS011;9340;48.756;9.226;2022-08-19T03:23:18;21.13;;;19.15;;
18425;SDS011;9340;48.756;9.226;2022-08-19T03:25:46;21.83;;;19.45;;
18425;SDS011;9340;48.756;9.226;2022-08-19T03:28:14;21.70;;;19.70;;
18425;SDS011;9340;48.756;9.226;2022-08-19T03:30:42;21.50;;;19.25;;
18425;SDS011;9340;48.756;9.226;2022-08-19T03:33:22;22.70;;;20.52;;
18425;SDS011;9340;48.756;9.226;2022-08-19T03:35:58;22.38;;;20.17;;
18425;SDS011;9340;48.756;9.226;2022-08-19T03:38:28;21.98;;;19.83;;
18425;SDS011;9340;48.756;9.226;2022-08-19T03:40:54;23.80;;;21.50;;
18425;SDS011;9340;48.756;9.226;2022-08-19T03:43:21;23.52;;;21.20;;
18425;SDS011;9340;48.756;9.226;2022-08-19T03:45:48;22.52;;;20.33;;
18425;SDS011;9340;48.756;9.226;2022-08-19T03:48:16;24.10;;;21.65;;
18425;SDS011;9340;48.756;9.226;2022-08-19T03:50:42;23.73;;;21.40;;
18425;SDS011;9340;48.756;9.226;2022-08-19T03:53:09;23.52;;;21.35;;
18425;SDS011;9340;48.756;9.226;2022-08-19T03:55:39;23.17;;;20.92;;
18425;SDS011;9340;48.756;9.226;2022-08-19T03:58:07;23.60;;;21.20;;
18425;SDS011;9340;48.756;9.226;2022-08-19T04:00:34;22.52;;;20.20;;
18425;SDS011;9340;48.756;9.226;2022-08-19T04:03:00;21.73;;;19.63;;
18425;SDS011;9340;48.756;9.226;2022-08-19T04:05:27;22.63;;;20.48;;
18425;SDS011;9340;48.756;9.226;2022-08-19T04:07:55;22.75;;;20.63;;
18425;SDS011;9340;48.756;9.226;2022-08-19T04:10:23;24.23;;;21.85;;
18425;SDS011;9340;48.756;9.226;2022-08-19T04:12:51;23.40;;;21.20;;
18425;SDS011;9340;48.756;9.226;2022-08-19T04:15:18;24.20;;;21.85;;
18425;SDS011;9340;48.756;9.226;2022-08-19T04:17:45;22.27;;;20.20;;
18425;SDS011;9340;48.756;9.226;2022-08-19T04:20:12;23.50;;;21.20;;
18425;SDS011;9340;48.756;9.226;2022-08-19T04:22:39;23.50;;;21.20;;
18425;SDS011;9340;48.756;9.226;2022-08-19T04:25:06;23.52;;;21.35;;
18425;SDS011;9340;48.756;9.226;2022-08-19T04:27:33;23.45;;;21.10;;
18425;SDS011;9340;48.756;9.226;2022-08-19T04:30:01;23.83;;;21.63;;
18425;SDS011;9340;48.756;9.226;2022-08-19T04:32:27;25.25;;;22.80;;
18425;SDS011;9340;48.756;9.226;2022-08-19T04:34:56;23.98;;;21.58;;
18425;SDS011;9340;48.756;9.226;2022-08-19T04:37:24;24.63;;;22.30;;
18425;SDS011;9340;48.756;9.226;2022-08-19T04:39:51;23.90;;;21.80;;
18425;SDS011;9340;48.756;9.226;2022-08-19T04:42:36;21.77;;;19.77;;
18425;SDS011;9340;48.756;9.226;2022-08-19T04:45:08;25.30;;;22.83;;
18425;SDS011;9340;48.756;9.226;2022-08-19T04:47:36;23.77;;;21.55;;
18425;SDS011;9340;48.756;9.226;2022-08-19T04:50:03;24.45;;;22.15;;
18425;SDS011;9340;48.756;9.226;2022-08-19T04:52:31;25.85;;;23.13;;
18425;SDS011;9340;48.756;9.226;2022-08-19T04:54:58;25.00;;;22.73;;
18425;SDS011;9340;48.756;9.226;2022-08-19T04:57:24;24.60;;;22.25;;
18425;SDS011;9340;48.756;9.226;2022-08-19T04:59:53;24.20;;;21.95;;
18425;SDS011;9340;48.756;9.226;2022-08-19T05:02:21;23.88;;;21.52;;
18425;SDS011;9340;48.756;9.226;2022-08-19T05:04:49;23.95;;;21.83;;
18425;SDS011;9340;48.756;9.226;2022-08-19T05:07:16;24.25;;;22.02;;
18425;SDS011;9340;48.756;9.226;2022-08-19T05:09:43;23.48;;;21.42;;
18425;SDS011;9340;48.756;9.226;2022-08-19T05:12:10;24.52;;;22.30;;
18425;SDS011;9340;48.756;9.226;2022-08-19T05:14:36;24.95;;;22.67;;
18425;SDS011;9340;48.756;9.226;2022-08-19T05:17:03;23.48;;;21.30;;
18425;SDS011;9340;48.756;9.226;2022-08-19T05:19:31;24.70;;;22.42;;
18425;SDS011;9340;48.756;9.226;2022-08-19T05:22:15;25.40;;;22.98;;
18425;SDS011;9340;48.756;9.226;2022-08-19T05:25:01;24.52;;;22.20;;
18425;SDS011;9340;48.756;9.226;2022-08-19T05:27:30;25.08;;;22.75;;
18425;SDS011;9340;48.756;9.226;2022-08-19T05:29:57;26.45;;;23.92;;
18425;SDS011;9340;48.756;9.226;2022-08-19T05:32:24;24.42;;;22.10;;
18425;SDS011;9340;48.756;9.226;2022-08-19T05:34:52;24.98;;;22.75;;
18425;SDS011;9340;48.756;9.226;2022-08-19T05:37:19;23.15;;;21.05;;
18425;SDS011;9340;48.756;9.226;2022-08-19T05:39:46;23.55;;;21.08;;
18425;SDS011;9340;48.756;9.226;2022-08-19T05:42:13;25.10;;;22.75;;
18425;SDS011;9340;48.756;9.226;2022-08-19T05:44:41;23.60;;;21.50;;
18425;SDS011;9340;48.756;9.226;2022-08-19T05:47:10;23.42;;;21.33;;
18425;SDS011;9340;48.756;9.226;2022-08-19T05:49:39;24.02;;;21.83;;
18425;SDS011;9340;48.756;9.226;2022-08-19T05:52:09;21.70;;;19.83;;
18425;SDS011;9340;48.756;9.226;2022-08-19T05:54:39;24.80;;;22.38;;
18425;SDS011;9340;48.756;9.226;2022-08-19T05:57:07;22.13;;;20.02;;
18425;SDS011;9340;48.756;9.226;2022-08-19T05:59:35;22.27;;;20.20;;
18425;SDS011;9340;48.756;9.226;2022-08-19T06:02:02;24.17;;;21.73;;
18425;SDS011;9340;48.756;9.226;2022-08-19T06:04:31;24.67;;;22.48;;
18425;SDS011;9340;48.756;9.226;2022-08-19T06:06:57;25.38;;;22.98;;
18425;SDS011;9340;48.756;9.226;2022-08-19T06:09:27;24.40;;;22.08;;
18425;SDS011;9340;48.756;9.226;2022-08-19T06:11:55;23.40;;;21.02;;
18425;SDS011;9340;48.756;9.226;2022-08-19T06:14:25;23.88;;;21.67;;
18425;SDS011;9340;48.756;9.226;2022-08-19T06:16:55;24.80;;;22.58;;
18425;SDS011;9340;48.756;9.226;2022-08-19T06:19:24;24.88;;;22.67;;
18425;SDS011;9340;48.756;9.226;2022-08-19T06:21:51;24.27;;;22.08;;
18425;SDS011;9340;48.756;9.226;2022-08-19T06:24:19;25.33;;;23.13;;
18425;SDS011;9340;48.756;9.226;2022-08-19T06:26:50;27.55;;;25.05;;
18425;SDS011;9340;48.756;9.226;2022-08-19T06:29:18;25.63;;;23.30;;
18425;SDS011;9340;48.756;9.226;2022-08-19T06:31:47;26.95;;;24.45;;
18425;SDS011;9340;48.756;9.226;2022-08-19T06:34:16;26.15;;;23.75;;
18425;SDS011;9340;48.756;9.226;2022-08-19T06:36:44;29.17;;;26.38;;
18425;SDS011;9340;48.756;9.226;2022-08-19T06:39:13;30.25;;;27.35;;
18425;SDS011;9340;48.756;9.226;2022-08-19T06:41:42;28.60;;;25.70;;
18425;SDS011;9340;48.756;9.226;2022-08-19T06:44:11;29.30;;;26.30;;
18425;SDS011;9340;48.756;9.226;2022-08-19T06:46:38;27.95;;;25.25;;
18425;SDS011;9340;48.756;9.226;2022-08-19T06:49:06;30.80;;;27.80;;
18425;SDS011;9340;48.756;9.226;2022-08-19T06:51:34;27.38;;;24.83;;
18425;SDS011;9340;48.756;9.226;2022-08-19T06:54:00;24.88;;;22.63;;
18425;SDS011;9340;48.756;9.226;2022-08-19T06:56:28;26.38;;;24.00;;
18425;SDS011;9340;48.756;9.226;2022-08-19T06:58:58;24.17;;;21.95;;
18425;SDS011;9340;48.756;9.226;2022-08-19T07:01:26;26.85;;;24.25;;
18425;SDS011;9340;48.756;9.226;2022-08-19T07:03:53;28.60;;;25.92;;
18425;SDS011;9340;48.756;9.226;2022-08-19T07:06:20;25.92;;;23.45;;
18425;SDS011;9340;48.756;9.226;2022-08-19T07:08:47;26.13;;;23.52;;
18425;SDS011;9340;48.756;9.226;2022-08-19T07:11:15;27.90;;;25.25;;
18425;SDS011;9340;48.756;9.226;2022-08-19T07:13:44;27.30;;;24.70;;
18425;SDS011;9340;48.756;9.226;2022-08-19T07:16:14;26.40;;;23.70;;
18425;SDS011;9340;48.756;9.226;2022-08-19T07:18:43;25.25;;;22.77;;
18425;SDS011;9340;48.756;9.226;2022-08-19T07:21:11;22.63;;;20.52;;
18425;SDS011;9340;48.756;9.226;2022-08-19T07:23:40;25.02;;;22.52;;
18425;SDS011;9340;48.756;9.226;2022-08-19T07:26:07;25.48;;;23.15;;
18425;SDS011;9340;48.756;9.226;2022-08-19T07:28:35;23.70;;;21.50;;
18425;SDS011;9340;48.756;9.226;2022-08-19T07:31:04;21.80;;;19.90;;
18425;SDS011;9340;48.756;9.226;2022-08-19T07:33:31;25.85;;;23.35;;
18425;SDS011;9340;48.756;9.226;2022-08-19T07:36:04;23.38;;;21.30;;
18425;SDS011;9340;48.756;9.226;2022-08-19T07:38:31;24.30;;;22.17;;
18425;SDS011;9340;48.756;9.226;2022-08-19T07:40:59;24.73;;;22.48;;
18425;SDS011;9340;48.756;9.226;2022-08-19T07:43:27;25.58;;;23.30;;
18425;SDS011;9340;48.756;9.226;2022-08-19T07:45:54;25.17;;;22.95;;
18425;SDS011;9340;48.756;9.226;2022-08-19T07:48:22;27.17;;;24.83;;
18425;SDS011;9340;48.756;9.226;2022-08-19T07:50:50;22.77;;;20.65;;
18425;SDS011;9340;48.756;9.226;2022-08-19T07:53:19;27.20;;;24.58;;
18425;SDS011;9340;48.756;9.226;2022-08-19T07:55:46;28.05;;;25.48;;
18425;SDS011;9340;48.756;9.226;2022-08-19T07:58:14;28.42;;;25.58;;
18425;SDS011;9340;48.756;9.226;2022-08-19T08:00:43;27.58;;;25.08;;
18425;SDS011;9340;48.756;9.226;2022-08-19T08:03:11;26.70;;;24.23;;
18425;SDS011;9340;48.756;9.226;2022-08-19T08:05:39;28.20;;;25.63;;
18425;SDS011;9340;48.756;9.226;2022-08-19T08:08:24;29.08;;;26.27;;
18425;SDS011;9340;48.756;9.226;2022-08-19T08:11:09;26.35;;;23.92;;
18425;SDS011;9340;48.756;9.226;2022-08-19T08:13:35;27.50;;;24.92;;
18425;SDS011;9340;48.756;9.226;2022-08-19T08:16:02;27.83;;;25.38;;
18425;SDS011;9340;48.756;9.226;2022-08-19T08:18:30;30.10;;;27.20;;
18425;SDS011;9340;48.756;9.226;2022-08-19T08:20:58;28.77;;;26.10;;
18425;SDS011;9340;48.756;9.226;2022-08-19T08:23:26;29.50;;;26.60;;
18425;SDS011;9340;48.756;9.226;2022-08-19T08:25:55;27.42;;;24.80;;
18425;SDS011;9340;48.756;9.226;2022-08-19T08:28:24;29.15;;;26.45;;
18425;SDS011;9340;48.756;9.226;2022-08-19T08:30:52;31.77;;;28.77;;
18425;SDS011;9340;48.756;9.226;2022-08-19T08:33:21;28.52;;;25.63;;
18425;SDS011;9340;48.756;9.226;2022-08-19T08:35:49;28.23;;;25.58;;
18425;SDS011;9340;48.756;9.226;2022-08-19T08:38:15;29.13;;;26.42;;
18425;SDS011;9340;48.756;9.226;2022-08-19T08:40:45;29.17;;;26.25;;
18425;SDS011;9340;48.756;9.226;2022-08-19T08:43:19;29.63;;;26.80;;
18425;SDS011;9340;48.756;9.226;2022-08-19T08:45:51;27.20;;;24.60;;
18425;SDS011;9340;48.756;9.226;2022-08-19T08:48:24;26.95;;;24.52;;
18425;SDS011;9340;48.756;9.226;2022-08-19T08:50:57;26.73;;;24.27;;
18425;SDS011;9340;48.756;9.226;2022-08-19T08:53:27;26.92;;;24.42;;
18425;SDS011;9340;48.756;9.226;2022-08-19T08:55:55;26.00;;;23.67;;
18425;SDS011;9340;48.756;9.226;2022-08-19T08:58:24;25.88;;;23.50;;
18425;SDS011;9340;48.756;9.226;2022-08-19T09:00:55;25.65;;;23.25;;
18425;SDS011;9340;48.756;9.226;2022-08-19T09:03:23;26.00;;;23.35;;
18425;SDS011;9340;48.756;9.226;2022-08-19T09:05:55;24.63;;;22.35;;
18425;SDS011;9340;48.756;9.226;2022-08-19T09:08:34;23.85;;;21.65;;
18425;SDS011;9340;48.756;9.226;2022-08-19T09:11:08;24.17;;;22.08;;
18425;SDS011;9340;48.756;9.226;2022-08-19T09:13:42;23.90;;;21.90;;
18425;SDS011;9340;48.756;9.226;2022-08-19T09:16:20;23.13;;;21.20;;
18425;SDS011;9340;48.756;9.226;2022-08-19T09:18:50;19.40;;;17.60;;
18425;SDS011;9340;48.756;9.226;2022-08-19T09:21:18;22.00;;;19.92;;
18425;SDS011;9340;48.756;9.226;2022-08-19T09:23:47;24.85;;;22.38;;
18425;SDS011;9340;48.756;9.226;2022-08-19T09:26:17;25.38;;;22.92;;
18425;SDS011;9340;48.756;9.226;2022-08-19T09:28:45;22.20;;;20.20;;
18425;SDS011;9340;48.756;9.226;2022-08-19T09:31:16;23.23;;;21.17;;
18425;SDS011;9340;48.756;9.226;2022-08-19T09:33:53;23.75;;;21.65;;
18425;SDS011;9340;48.756;9.226;2022-08-19T09:36:22;22.55;;;20.75;;
18425;SDS011;9340;48.756;9.226;2022-08-19T09:38:51;24.70;;;22.40;;
18425;SDS011;9340;48.756;9.226;2022-08-19T09:41:20;25.63;;;23.33;;
18425;SDS011;9340;48.756;9.226;2022-08-19T09:43:49;23.50;;;21.50;;
18425;SDS011;9340;48.756;9.226;2022-08-19T09:46:18;25.65;;;23.35;;
18425;SDS011;9340;48.756;9.226;2022-08-19T09:48:46;25.52;;;23.23;;
18425;SDS011;9340;48.756;9.226;2022-08-19T09:51:15;26.70;;;24.10;;
18425;SDS011;9340;48.756;9.226;2022-08-19T09:53:44;27.90;;;25.42;;
18425;SDS011;9340;48.756;9.226;2022-08-19T09:56:12;28.13;;;25.48;;
18425;SDS011;9340;48.756;9.226;2022-08-19T09:58:41;25.50;;;23.17;;
18425;SDS011;9340;48.756;9.226;2022-08-19T10:01:08;28.30;;;25.70;;
18425;SDS011;9340;48.756;9.226;2022-08-19T10:03:35;26.70;;;24.25;;
18425;SDS011;9340;48.756;9.226;2022-08-19T10:06:03;27.90;;;25.17;;
18425;SDS011;9340;48.756;9.226;2022-08-19T10:08:36;28.27;;;25.60;;
18425;SDS011;9340;48.756;9.226;2022-08-19T10:11:04;29.20;;;26.30;;
18425;SDS011;9340;48.756;9.226;2022-08-19T10:13:31;28.75;;;26.20;;
18425;SDS011;9340;48.756;9.226;2022-08-19T10:16:03;27.77;;;25.27;;
18425;SDS011;9340;48.756;9.226;2022-08-19T10:18:32;32.47;;;29.48;;
18425;SDS011;9340;48.756;9.226;2022-08-19T10:21:04;33.88;;;30.42;;
18425;SDS011;9340;48.756;9.226;2022-08-19T10:23:35;29.33;;;26.70;;
18425;SDS011;9340;48.756;9.226;2022-08-19T10:26:03;30.13;;;27.27;;
18425;SDS011;9340;48.756;9.226;2022-08-19T10:28:31;30.63;;;27.75;;
18425;SDS011;9340;48.756;9.226;2022-08-19T10:31:04;34.65;;;31.45;;
18425;SDS011;9340;48.756;9.226;2022-08-19T10:33:31;30.08;;;27.40;;
18425;SDS011;9340;48.756;9.226;2022-08-19T10:35:59;31.67;;;28.50;;
18425;SDS011;9340;48.756;9.226;2022-08-19T10:38:26;29.95;;;27.23;;
18425;SDS011;9340;48.756;9.226;2022-08-19T10:40:54;32.55;;;29.48;;
18425;SDS011;9340;48.756;9.226;2022-08-19T10:43:21;48.40;;;38.72;;
18425;SDS011;9340;48.756;9.226;2022-08-19T10:45:51;30.30;;;27.55;;
18425;SDS011;9340;48.756;9.226;2022-08-19T10:48:20;30.15;;;27.45;;
18425;SDS011;9340;48.756;9.226;2022-08-19T10:50:46;31.60;;;28.70;;
18425;SDS011;9340;48.756;9.226;2022-08-19T10:53:31;30.13;;;27.33;;
18425;SDS011;9340;48.756;9.226;2022-08-19T10:55:57;28.05;;;25.52;;
18425;SDS011;9340;48.756;9.226;2022-08-19T10:58:41;27.95;;;25.35;;
18425;SDS011;9340;48.756;9.226;2022-08-19T11:01:09;27.85;;;25.17;;
18425;SDS011;9340;48.756;9.226;2022-08-19T11:03:37;27.63;;;25.15;;
18425;SDS011;9340;48.756;9.226;2022-08-19T11:06:05;27.88;;;25.27;;
18425;SDS011;9340;48.756;9.226;2022-08-19T11:08:33;28.73;;;26.02;;
18425;SDS011;9340;48.756;9.226;2022-08-19T11:11:02;29.45;;;26.83;;
18425;SDS011;9340;48.756;9.226;2022-08-19T11:13:30;28.77;;;26.15;;
18425;SDS011;9340;48.756;9.226;2022-08-19T11:16:01;31.63;;;28.60;;
18425;SDS011;9340;48.756;9.226;2022-08-19T11:18:31;30.27;;;27.52;;
18425;SDS011;9340;48.756;9.226;2022-08-19T11:21:06;29.05;;;26.25;;
18425;SDS011;9340;48.756;9.226;2022-08-19T11:23:35;27.02;;;24.25;;
18425;SDS011;9340;48.756;9.226;2022-08-19T11:26:01;32.08;;;29.17;;
18425;SDS011;9340;48.756;9.226;2022-08-19T11:28:29;30.02;;;27.20;;
18425;SDS011;9340;48.756;9.226;2022-08-19T11:30:55;31.42;;;28.40;;
18425;SDS011;9340;48.756;9.226;2022-08-19T11:33:22;29.60;;;27.00;;
18425;SDS011;9340;48.756;9.226;2022-08-19T11:35:51;28.88;;;26.15;;
18425;SDS011;9340;48.756;9.226;2022-08-19T11:38:19;27.35;;;24.63;;
18425;SDS011;9340;48.756;9.226;2022-08-19T11:40:53;27.73;;;25.20;;
18425;SDS011;9340;48.756;9.226;2022-08-19T11:43:20;25.10;;;22.90;;
18425;SDS011;9340;48.756;9.226;2022-08-19T11:45:47;24.55;;;22.38;;
18425;SDS011;9340;48.756;9.226;2022-08-19T11:48:14;21.40;;;19.70;;
18425;SDS011;9340;48.756;9.226;2022-08-19T11:50:40;25.67;;;23.25;;
18425;SDS011;9340;48.756;9.226;2022-08-19T11:53:08;23.13;;;20.92;;
18425;SDS011;9340;48.756;9.226;2022-08-19T11:55:37;25.17;;;22.98;;
18425;SDS011;9340;48.756;9.226;2022-08-19T11:58:06;24.02;;;21.75;;
18425;SDS011;9340;48.756;9.226;2022-08-19T12:00:33;23.10;;;21.02;;
18425;SDS011;9340;48.756;9.226;2022-08-19T12:03:02;24.55;;;22.25;;
18425;SDS011;9340;48.756;9.226;2022-08-19T12:05:28;23.48;;;21.55;;
18425;SDS011;9340;48.756;9.226;2022-08-19T12:07:55;24.20;;;21.83;;
18425;SDS011;9340;48.756;9.226;2022-08-19T12:10:22;24.63;;;22.42;;
18425;SDS011;9340;48.756;9.226;2022-08-19T12:12:51;22.95;;;20.90;;
18425;SDS011;9340;48.756;9.226;2022-08-19T12:15:18;25.20;;;23.00;;
18425;SDS011;9340;48.756;9.226;2022-08-19T12:17:44;29.30;;;26.60;;
18425;SDS011;9340;48.756;9.226;2022-08-19T12:20:21;29.75;;;27.05;;
18425;SDS011;9340;48.756;9.226;2022-08-19T12:22:49;31.13;;;28.30;;
18425;SDS011;9340;48.756;9.226;2022-08-19T12:25:16;30.95;;;28.08;;
18425;SDS011;9340;48.756;9.226;2022-08-19T12:27:43;31.10;;;28.23;;
18425;SDS011;9340;48.756;9.226;2022-08-19T12:30:12;29.13;;;26.48;;
18425;SDS011;9340;48.756;9.226;2022-08-19T12:32:40;27.58;;;25.05;;
18425;SDS011;9340;48.756;9.226;2022-08-19T12:35:07;31.55;;;28.38;;
18425;SDS011;9340;48.756;9.226;2022-08-19T12:37:36;29.83;;;27.20;;
18425;SDS011;9340;48.756;9.226;2022-08-19T12:40:03;30.48;;;27.65;;
18425;SDS011;9340;48.756;9.226;2022-08-19T12:42:31;33.28;;;30.30;;
18425;SDS011;9340;48.756;9.226;2022-08-19T12:44:57;31.48;;;28.77;;
18425;SDS011;9340;48.756;9.226;2022-08-19T12:47:25;29.15;;;26.45;;
18425;SDS011;9340;48.756;9.226;2022-08-19T12:49:52;30.23;;;27.45;;
18425;SDS011;9340;48.756;9.226;2022-08-19T12:52:19;29.85;;;27.23;;
18425;SDS011;9340;48.756;9.226;2022-08-19T12:54:46;30.73;;;27.92;;
18425;SDS011;9340;48.756;9.226;2022-08-19T12:57:13;29.88;;;27.08;;
18425;SDS011;9340;48.756;9.226;2022-08-19T12:59:40;30.52;;;27.63;;
18425;SDS011;9340;48.756;9.226;2022-08-19T13:02:07;26.30;;;24.10;;
18425;SDS011;9340;48.756;9.226;2022-08-19T13:04:35;25.95;;;23.75;;
18425;SDS011;9340;48.756;9.226;2022-08-19T13:07:05;28.88;;;26.38;;
18425;SDS011;9340;48.756;9.226;2022-08-19T13:09:32;29.05;;;26.38;;
18425;SDS011;9340;48.756;9.226;2022-08-19T13:11:59;29.80;;;27.20;;
18425;SDS011;9340;48.756;9.226;2022-08-19T13:14:27;29.05;;;26.40;;
18425;SDS011;9340;48.756;9.226;2022-08-19T13:16:56;29.85;;;27.25;;
18425;SDS011;9340;48.756;9.226;2022-08-19T13:19:23;30.75;;;28.00;;
18425;SDS011;9340;48.756;9.226;2022-08-19T13:21:51;33.45;;;30.45;;
18425;SDS011;9340;48.756;9.226;2022-08-19T13:24:18;30.98;;;28.05;;
18425;SDS011;9340;48.756;9.226;2022-08-19T13:26:45;32.38;;;29.23;;
18425;SDS011;9340;48.756;9.226;2022-08-19T13:29:12;33.10;;;29.95;;
18425;SDS011;9340;48.756;9.226;2022-08-19T13:31:57;33.83;;;30.65;;
18425;SDS011;9340;48.756;9.226;2022-08-19T13:34:41;33.45;;;30.13;;
18425;SDS011;9340;48.756;9.226;2022-08-19T13:37:11;33.58;;;30.45;;
18425;SDS011;9340;48.756;9.226;2022-08-19T13:39:38;37.63;;;33.83;;
18425;SDS011;9340;48.756;9.226;2022-08-19T13:42:04;33.53;;;30.38;;
18425;SDS011;9340;48.756;9.226;2022-08-19T13:44:33;35.75;;;32.05;;
18425;SDS011;9340;48.756;9.226;2022-08-19T13:47:00;39.08;;;35.35;;
18425;SDS011;9340;48.756;9.226;2022-08-19T13:49:30;33.13;;;29.83;;
18425;SDS011;9340;48.756;9.226;2022-08-19T13:51:57;34.28;;;30.90;;
18425;SDS011;9340;48.756;9.226;2022-08-19T13:54:25;32.50;;;29.50;;
18425;SDS011;9340;48.756;9.226;2022-08-19T13:56:52;35.47;;;32.08;;
18425;SDS011;9340;48.756;9.226;2022-08-19T13:59:19;32.75;;;29.63;;
18425;SDS011;9340;48.756;9.226;2022-08-19T14:01:46;37.20;;;33.50;;
18425;SDS011;9340;48.756;9.226;2022-08-19T14:04:13;37.67;;;34.05;;
18425;SDS011;9340;48.756;9.226;2022-08-19T14:06:39;37.33;;;33.75;;
18425;SDS011;9340;48.756;9.226;2022-08-19T14:09:06;41.53;;;34.22;;
18425;SDS011;9340;48.756;9.226;2022-08-19T14:11:34;36.72;;;33.08;;
18425;SDS011;9340;48.756;9.226;2022-08-19T14:14:02;36.92;;;33.40;;
18425;SDS011;9340;48.756;9.226;2022-08-19T14:16:28;39.65;;;35.75;;
18425;SDS011;9340;48.756;9.226;2022-08-19T14:18:56;40.97;;;36.65;;
18425;SDS011;9340;48.756;9.226;2022-08-19T14:21:23;41.83;;;37.60;;
18425;SDS011;9340;48.756;9.226;2022-08-19T14:23:50;41.75;;;36.88;;
18425;SDS011;9340;48.756;9.226;2022-08-19T14:26:18;40.67;;;36.47;;
18425;SDS011;9340;48.756;9.226;2022-08-19T14:28:48;39.92;;;36.00;;
18425;SDS011;9340;48.756;9.226;2022-08-19T14:31:15;36.90;;;33.40;;
18425;SDS011;9340;48.756;9.226;2022-08-19T14:33:44;38.90;;;35.17;;
18425;SDS011;9340;48.756;9.226;2022-08-19T14:36:12;36.75;;;33.45;;
18425;SDS011;9340;48.756;9.226;2022-08-19T14:38:38;34.17;;;31.05;;
18425;SDS011;9340;48.756;9.226;2022-08-19T14:41:09;34.63;;;31.42;;